sensor_id;sensor_type;location;lat;lon;timestamp;temperature;humidity
19330;DHT22;9799;48.214;16.388;2022-07-10T00:00:44;18.70;99.90
19330;DHT22;9799;48.214;16.388;2022-07-10T00:04:07;18.60;99.90
19330;DHT22;9799;48.214;16.388;2022-07-10T00:07:28;18.70;99.90
19330;DHT22;9799;48.214;16.388;2022-07-10T00:10:49;18.70;99.90
19330;DHT22;9799;48.214;16.388;2022-07-10T00:14:10;18.60;99.90
19330;DHT22;9799;48.214;16.388;2022-07-10T00:17:31;18.50;99.90
19330;DHT22;9799;48.214;16.388;2022-07-10T00:20:54;18.60;99.90
19330;DHT22;9799;48.214;16.388;2022-07-10T00:24:15;18.50;99.90
19330;DHT22;9799;48.214;16.388;2022-07-10T00:27:36;18.50;99.90
19330;DHT22;9799;48.214;16.388;2022-07-10T00:30:58;18.50;99.90
19330;DHT22;9799;48.214;16.388;2022-07-10T00:34:19;18.50;99.90
19330;DHT22;9799;48.214;16.388;2022-07-10T00:37:42;18.50;99.90
19330;DHT22;9799;48.214;16.388;2022-07-10T00:41:03;18.50;99.90
19330;DHT22;9799;48.214;16.388;2022-07-10T00:44:24;18.40;99.90
19330;DHT22;9799;48.214;16.388;2022-07-10T00:47:45;18.40;99.90
19330;DHT22;9799;48.214;16.388;2022-07-10T00:51:07;18.50;99.90
19330;DHT22;9799;48.214;16.388;2022-07-10T00:54:29;18.40;99.90
19330;DHT22;9799;48.214;16.388;2022-07-10T00:57:51;18.50;99.90
19330;DHT22;9799;48.214;16.388;2022-07-10T01:01:14;18.40;99.90
19330;DHT22;9799;48.214;16.388;2022-07-10T01:04:35;18.40;99.90
19330;DHT22;9799;48.214;16.388;2022-07-10T01:07:56;18.30;99.90
19330;DHT22;9799;48.214;16.388;2022-07-10T01:11:18;18.40;99.90
19330;DHT22;9799;48.214;16.388;2022-07-10T01:14:41;18.30;99.90
19330;DHT22;9799;48.214;16.388;2022-07-10T01:18:02;18.30;99.90
19330;DHT22;9799;48.214;16.388;2022-07-10T01:21:25;18.30;99.90
19330;DHT22;9799;48.214;16.388;2022-07-10T01:24:46;18.30;99.90
19330;DHT22;9799;48.214;16.388;2022-07-10T01:28:07;18.30;99.90
19330;DHT22;9799;48.214;16.388;2022-07-10T01:31:29;18.30;99.90
19330;DHT22;9799;48.214;16.388;2022-07-10T01:34:50;18.30;99.90
19330;DHT22;9799;48.214;16.388;2022-07-10T01:38:13;18.30;99.90
19330;DHT22;9799;48.214;16.388;2022-07-10T01:41:34;18.20;99.90
19330;DHT22;9799;48.214;16.388;2022-07-10T01:44:55;18.20;99.90
19330;DHT22;9799;48.214;16.388;2022-07-10T01:48:16;18.10;99.90
19330;DHT22;9799;48.214;16.388;2022-07-10T01:51:37;18.20;99.90
19330;DHT22;9799;48.214;16.388;2022-07-10T01:55:00;18.10;99.90
19330;DHT22;9799;48.214;16.388;2022-07-10T01:58:21;18.00;99.90
19330;DHT22;9799;48.214;16.388;2022-07-10T02:01:43;18.10;99.90
19330;DHT22;9799;48.214;16.388;2022-07-10T02:05:04;18.20;99.90
19330;DHT22;9799;48.214;16.388;2022-07-10T02:08:26;18.20;99.90
19330;DHT22;9799;48.214;16.388;2022-07-10T02:11:48;18.30;99.90
19330;DHT22;9799;48.214;16.388;2022-07-10T02:15:09;18.30;99.90
19330;DHT22;9799;48.214;16.388;2022-07-10T02:18:30;18.20;99.90
19330;DHT22;9799;48.214;16.388;2022-07-10T02:21:52;18.20;99.90
19330;DHT22;9799;48.214;16.388;2022-07-10T02:25:13;18.20;99.90
19330;DHT22;9799;48.214;16.388;2022-07-10T02:28:36;18.20;99.90
19330;DHT22;9799;48.214;16.388;2022-07-10T02:31:57;18.20;99.90
19330;DHT22;9799;48.214;16.388;2022-07-10T02:35:18;18.10;99.90
19330;DHT22;9799;48.214;16.388;2022-07-10T02:38:39;18.10;99.90
19330;DHT22;9799;48.214;16.388;2022-07-10T02:42:00;18.10;99.90
19330;DHT22;9799;48.214;16.388;2022-07-10T02:45:23;18.20;99.90
19330;DHT22;9799;48.214;16.388;2022-07-10T02:48:44;18.20;99.90
19330;DHT22;9799;48.214;16.388;2022-07-10T02:52:05;18.10;99.90
19330;DHT22;9799;48.214;16.388;2022-07-10T02:55:26;18.10;99.90
19330;DHT22;9799;48.214;16.388;2022-07-10T02:58:47;18.10;99.90
19330;DHT22;9799;48.214;16.388;2022-07-10T03:02:10;18.20;99.90
19330;DHT22;9799;48.214;16.388;2022-07-10T03:05:31;18.20;99.90
19330;DHT22;9799;48.214;16.388;2022-07-10T03:08:54;18.10;99.90
19330;DHT22;9799;48.214;16.388;2022-07-10T03:12:15;18.10;99.90
19330;DHT22;9799;48.214;16.388;2022-07-10T03:15:36;18.00;99.90
19330;DHT22;9799;48.214;16.388;2022-07-10T03:19:00;18.00;99.90
19330;DHT22;9799;48.214;16.388;2022-07-10T03:22:21;17.90;99.90
19330;DHT22;9799;48.214;16.388;2022-07-10T03:25:42;18.10;99.90
19330;DHT22;9799;48.214;16.388;2022-07-10T03:29:04;18.00;99.90
19330;DHT22;9799;48.214;16.388;2022-07-10T03:32:25;17.90;99.90
19330;DHT22;9799;48.214;16.388;2022-07-10T03:35:47;18.00;99.90
19330;DHT22;9799;48.214;16.388;2022-07-10T03:39:09;18.00;99.90
19330;DHT22;9799;48.214;16.388;2022-07-10T03:42:30;17.90;99.90
19330;DHT22;9799;48.214;16.388;2022-07-10T03:45:51;17.90;99.90
19330;DHT22;9799;48.214;16.388;2022-07-10T03:49:13;18.00;99.90
19330;DHT22;9799;48.214;16.388;2022-07-10T03:52:35;18.10;99.90
19330;DHT22;9799;48.214;16.388;2022-07-10T03:55:56;18.10;99.90
19330;DHT22;9799;48.214;16.388;2022-07-10T03:59:17;18.10;99.90
19330;DHT22;9799;48.214;16.388;2022-07-10T04:02:37;18.20;99.90
19330;DHT22;9799;48.214;16.388;2022-07-10T04:05:59;18.20;99.90
19330;DHT22;9799;48.214;16.388;2022-07-10T04:09:21;18.20;99.90
19330;DHT22;9799;48.214;16.388;2022-07-10T04:12:42;18.20;99.90
19330;DHT22;9799;48.214;16.388;2022-07-10T04:16:04;18.30;99.90
19330;DHT22;9799;48.214;16.388;2022-07-10T04:19:25;18.30;99.90
19330;DHT22;9799;48.214;16.388;2022-07-10T04:22:47;18.30;99.90
19330;DHT22;9799;48.214;16.388;2022-07-10T04:26:10;18.30;99.90
19330;DHT22;9799;48.214;16.388;2022-07-10T04:29:31;18.30;99.90
19330;DHT22;9799;48.214;16.388;2022-07-10T04:32:52;18.30;99.90
19330;DHT22;9799;48.214;16.388;2022-07-10T04:36:13;18.30;99.90
19330;DHT22;9799;48.214;16.388;2022-07-10T04:39:36;18.30;99.90
19330;DHT22;9799;48.214;16.388;2022-07-10T04:42:59;18.30;99.90
19330;DHT22;9799;48.214;16.388;2022-07-10T04:46:20;18.40;99.90
19330;DHT22;9799;48.214;16.388;2022-07-10T04:49:41;18.50;99.90
19330;DHT22;9799;48.214;16.388;2022-07-10T04:53:02;18.50;99.90
19330;DHT22;9799;48.214;16.388;2022-07-10T04:56:23;18.50;99.90
19330;DHT22;9799;48.214;16.388;2022-07-10T04:59:46;18.50;99.90
19330;DHT22;9799;48.214;16.388;2022-07-10T05:03:07;18.60;99.90
19330;DHT22;9799;48.214;16.388;2022-07-10T05:06:28;18.60;99.90
19330;DHT22;9799;48.214;16.388;2022-07-10T05:09:49;18.50;99.90
19330;DHT22;9799;48.214;16.388;2022-07-10T05:13:10;18.50;99.90
19330;DHT22;9799;48.214;16.388;2022-07-10T05:16:33;18.50;99.90
19330;DHT22;9799;48.214;16.388;2022-07-10T05:19:54;18.50;99.90
19330;DHT22;9799;48.214;16.388;2022-07-10T05:23:16;18.50;99.90
19330;DHT22;9799;48.214;16.388;2022-07-10T05:26:37;18.50;99.90
19330;DHT22;9799;48.214;16.388;2022-07-10T05:29:58;18.60;99.90
19330;DHT22;9799;48.214;16.388;2022-07-10T05:33:21;18.60;99.90
19330;DHT22;9799;48.214;16.388;2022-07-10T05:36:42;18.60;99.90
19330;DHT22;9799;48.214;16.388;2022-07-10T05:40:04;18.60;99.90
19330;DHT22;9799;48.214;16.388;2022-07-10T05:43:25;18.60;99.90
19330;DHT22;9799;48.214;16.388;2022-07-10T05:46:46;18.50;99.90
19330;DHT22;9799;48.214;16.388;2022-07-10T05:50:09;18.50;99.90
19330;DHT22;9799;48.214;16.388;2022-07-10T05:53:30;18.60;99.90
19330;DHT22;9799;48.214;16.388;2022-07-10T05:56:51;18.60;99.90
19330;DHT22;9799;48.214;16.388;2022-07-10T06:00:13;18.50;99.90
19330;DHT22;9799;48.214;16.388;2022-07-10T06:03:34;18.50;99.90
19330;DHT22;9799;48.214;16.388;2022-07-10T06:06:57;18.60;99.90
19330;DHT22;9799;48.214;16.388;2022-07-10T06:10:18;18.60;99.90
19330;DHT22;9799;48.214;16.388;2022-07-10T06:13:39;18.60;99.90
19330;DHT22;9799;48.214;16.388;2022-07-10T06:17:00;18.60;99.90
19330;DHT22;9799;48.214;16.388;2022-07-10T06:20:22;18.60;99.90
19330;DHT22;9799;48.214;16.388;2022-07-10T06:23:44;18.50;99.90
19330;DHT22;9799;48.214;16.388;2022-07-10T06:27:05;18.50;99.90
19330;DHT22;9799;48.214;16.388;2022-07-10T06:30:27;18.50;99.90
19330;DHT22;9799;48.214;16.388;2022-07-10T06:33:48;18.50;99.90
19330;DHT22;9799;48.214;16.388;2022-07-10T06:37:09;18.60;99.90
19330;DHT22;9799;48.214;16.388;2022-07-10T06:40:35;18.80;99.90
19330;DHT22;9799;48.214;16.388;2022-07-10T06:43:57;18.80;99.90
19330;DHT22;9799;48.214;16.388;2022-07-10T06:47:20;18.70;99.90
19330;DHT22;9799;48.214;16.388;2022-07-10T06:51:00;18.80;99.90
19330;DHT22;9799;48.214;16.388;2022-07-10T06:54:21;19.30;99.90
19330;DHT22;9799;48.214;16.388;2022-07-10T06:57:44;19.70;99.90
19330;DHT22;9799;48.214;16.388;2022-07-10T07:01:05;19.90;99.90
19330;DHT22;9799;48.214;16.388;2022-07-10T07:04:26;19.90;99.90
19330;DHT22;9799;48.214;16.388;2022-07-10T07:07:47;19.80;99.90
19330;DHT22;9799;48.214;16.388;2022-07-10T07:11:09;19.60;99.90
19330;DHT22;9799;48.214;16.388;2022-07-10T07:14:31;19.20;99.90
19330;DHT22;9799;48.214;16.388;2022-07-10T07:17:52;19.10;99.90
19330;DHT22;9799;48.214;16.388;2022-07-10T07:21:28;19.10;99.90
19330;DHT22;9799;48.214;16.388;2022-07-10T07:25:07;19.00;99.90
19330;DHT22;9799;48.214;16.388;2022-07-10T07:28:28;19.10;99.90
19330;DHT22;9799;48.214;16.388;2022-07-10T07:31:51;19.20;99.90
19330;DHT22;9799;48.214;16.388;2022-07-10T07:35:15;19.30;99.90
19330;DHT22;9799;48.214;16.388;2022-07-10T07:38:37;19.20;99.90
19330;DHT22;9799;48.214;16.388;2022-07-10T07:41:58;19.00;99.90
19330;DHT22;9799;48.214;16.388;2022-07-10T07:45:19;19.00;99.90
19330;DHT22;9799;48.214;16.388;2022-07-10T07:48:41;18.80;99.90
19330;DHT22;9799;48.214;16.388;2022-07-10T07:52:03;18.60;99.90
19330;DHT22;9799;48.214;16.388;2022-07-10T07:55:25;18.50;99.90
19330;DHT22;9799;48.214;16.388;2022-07-10T07:58:46;18.50;99.90
19330;DHT22;9799;48.214;16.388;2022-07-10T08:02:07;18.40;99.90
19330;DHT22;9799;48.214;16.388;2022-07-10T08:05:30;18.20;99.90
19330;DHT22;9799;48.214;16.388;2022-07-10T08:08:51;18.10;99.90
19330;DHT22;9799;48.214;16.388;2022-07-10T08:12:12;18.00;99.90
19330;DHT22;9799;48.214;16.388;2022-07-10T08:15:33;17.90;99.90
19330;DHT22;9799;48.214;16.388;2022-07-10T08:18:55;17.90;99.90
19330;DHT22;9799;48.214;16.388;2022-07-10T08:22:18;17.90;99.90
19330;DHT22;9799;48.214;16.388;2022-07-10T08:25:39;17.90;99.90
19330;DHT22;9799;48.214;16.388;2022-07-10T08:29:00;17.80;99.90
19330;DHT22;9799;48.214;16.388;2022-07-10T08:32:21;17.70;99.90
19330;DHT22;9799;48.214;16.388;2022-07-10T08:35:43;17.80;99.90
19330;DHT22;9799;48.214;16.388;2022-07-10T08:39:05;17.60;99.90
19330;DHT22;9799;48.214;16.388;2022-07-10T08:42:26;17.70;99.90
19330;DHT22;9799;48.214;16.388;2022-07-10T08:45:49;17.70;99.90
19330;DHT22;9799;48.214;16.388;2022-07-10T08:49:11;17.90;99.90
19330;DHT22;9799;48.214;16.388;2022-07-10T08:52:37;17.90;99.90
19330;DHT22;9799;48.214;16.388;2022-07-10T08:56:00;17.80;99.90
19330;DHT22;9799;48.214;16.388;2022-07-10T08:59:22;17.80;99.90
19330;DHT22;9799;48.214;16.388;2022-07-10T09:02:43;17.70;99.90
19330;DHT22;9799;48.214;16.388;2022-07-10T09:06:05;17.70;99.90
19330;DHT22;9799;48.214;16.388;2022-07-10T09:09:27;17.80;99.90
19330;DHT22;9799;48.214;16.388;2022-07-10T09:12:53;18.00;99.90
19330;DHT22;9799;48.214;16.388;2022-07-10T09:16:23;18.00;99.90
19330;DHT22;9799;48.214;16.388;2022-07-10T09:19:44;18.30;99.90
19330;DHT22;9799;48.214;16.388;2022-07-10T09:23:15;18.50;99.90
19330;DHT22;9799;48.214;16.388;2022-07-10T09:26:37;18.70;99.90
19330;DHT22;9799;48.214;16.388;2022-07-10T09:30:02;18.60;99.90
19330;DHT22;9799;48.214;16.388;2022-07-10T09:33:24;18.80;99.90
19330;DHT22;9799;48.214;16.388;2022-07-10T09:36:49;19.10;99.90
19330;DHT22;9799;48.214;16.388;2022-07-10T09:40:10;19.30;99.90
19330;DHT22;9799;48.214;16.388;2022-07-10T09:43:43;19.30;99.90
19330;DHT22;9799;48.214;16.388;2022-07-10T09:47:06;19.30;99.90
19330;DHT22;9799;48.214;16.388;2022-07-10T09:50:42;19.20;99.90
19330;DHT22;9799;48.214;16.388;2022-07-10T09:54:05;19.20;99.90
19330;DHT22;9799;48.214;16.388;2022-07-10T09:57:28;19.10;99.90
19330;DHT22;9799;48.214;16.388;2022-07-10T10:00:52;19.30;99.90
19330;DHT22;9799;48.214;16.388;2022-07-10T10:04:18;19.40;99.90
19330;DHT22;9799;48.214;16.388;2022-07-10T10:07:39;19.50;99.90
19330;DHT22;9799;48.214;16.388;2022-07-10T10:11:01;19.60;99.90
19330;DHT22;9799;48.214;16.388;2022-07-10T10:14:23;19.70;99.90
19330;DHT22;9799;48.214;16.388;2022-07-10T10:17:49;19.70;99.90
19330;DHT22;9799;48.214;16.388;2022-07-10T10:21:12;19.70;99.90
19330;DHT22;9799;48.214;16.388;2022-07-10T10:24:34;19.60;99.90
19330;DHT22;9799;48.214;16.388;2022-07-10T10:27:59;19.90;99.90
19330;DHT22;9799;48.214;16.388;2022-07-10T10:31:20;20.40;99.90
19330;DHT22;9799;48.214;16.388;2022-07-10T10:34:42;20.40;99.90
19330;DHT22;9799;48.214;16.388;2022-07-10T10:38:05;20.40;99.90
19330;DHT22;9799;48.214;16.388;2022-07-10T10:41:27;20.40;99.90
19330;DHT22;9799;48.214;16.388;2022-07-10T10:45:21;20.40;99.90
19330;DHT22;9799;48.214;16.388;2022-07-10T10:49:04;20.20;99.90
19330;DHT22;9799;48.214;16.388;2022-07-10T10:52:26;20.10;99.90
19330;DHT22;9799;48.214;16.388;2022-07-10T10:56:25;20.00;99.90
19330;DHT22;9799;48.214;16.388;2022-07-10T10:59:46;20.20;99.90
19330;DHT22;9799;48.214;16.388;2022-07-10T11:03:21;20.20;99.90
19330;DHT22;9799;48.214;16.388;2022-07-10T11:06:45;20.40;99.90
19330;DHT22;9799;48.214;16.388;2022-07-10T11:10:27;20.80;99.90
19330;DHT22;9799;48.214;16.388;2022-07-10T11:13:50;20.80;99.90
19330;DHT22;9799;48.214;16.388;2022-07-10T11:17:11;21.00;99.90
19330;DHT22;9799;48.214;16.388;2022-07-10T11:20:34;21.10;99.90
19330;DHT22;9799;48.214;16.388;2022-07-10T11:23:59;21.10;99.90
19330;DHT22;9799;48.214;16.388;2022-07-10T11:27:36;20.80;99.90
19330;DHT22;9799;48.214;16.388;2022-07-10T11:31:04;20.70;99.90
19330;DHT22;9799;48.214;16.388;2022-07-10T11:34:34;20.90;99.90
19330;DHT22;9799;48.214;16.388;2022-07-10T11:37:56;20.70;99.90
19330;DHT22;9799;48.214;16.388;2022-07-10T11:41:18;20.70;99.90
19330;DHT22;9799;48.214;16.388;2022-07-10T11:44:40;20.50;99.90
19330;DHT22;9799;48.214;16.388;2022-07-10T11:48:04;20.60;99.90
19330;DHT22;9799;48.214;16.388;2022-07-10T11:51:27;20.70;99.90
19330;DHT22;9799;48.214;16.388;2022-07-10T11:54:48;20.50;99.90
19330;DHT22;9799;48.214;16.388;2022-07-10T11:58:14;20.40;99.90
19330;DHT22;9799;48.214;16.388;2022-07-10T12:01:41;20.50;99.90
19330;DHT22;9799;48.214;16.388;2022-07-10T12:05:07;20.70;99.90
19330;DHT22;9799;48.214;16.388;2022-07-10T12:08:28;21.20;99.90
19330;DHT22;9799;48.214;16.388;2022-07-10T12:11:58;21.40;99.90
19330;DHT22;9799;48.214;16.388;2022-07-10T12:15:33;21.40;99.90
19330;DHT22;9799;48.214;16.388;2022-07-10T12:18:55;21.60;99.90
19330;DHT22;9799;48.214;16.388;2022-07-10T12:22:17;21.70;99.70
19330;DHT22;9799;48.214;16.388;2022-07-10T12:25:39;22.10;99.30
19330;DHT22;9799;48.214;16.388;2022-07-10T12:29:01;22.00;97.40
19330;DHT22;9799;48.214;16.388;2022-07-10T12:32:22;21.70;96.60
19330;DHT22;9799;48.214;16.388;2022-07-10T12:35:48;21.60;95.20
19330;DHT22;9799;48.214;16.388;2022-07-10T12:39:11;22.10;93.80
19330;DHT22;9799;48.214;16.388;2022-07-10T12:42:33;22.30;93.30
19330;DHT22;9799;48.214;16.388;2022-07-10T12:46:13;22.20;93.50
19330;DHT22;9799;48.214;16.388;2022-07-10T12:49:52;22.00;94.80
19330;DHT22;9799;48.214;16.388;2022-07-10T12:53:14;21.90;94.90
19330;DHT22;9799;48.214;16.388;2022-07-10T12:56:37;22.00;94.60
19330;DHT22;9799;48.214;16.388;2022-07-10T13:00:03;21.80;93.90
19330;DHT22;9799;48.214;16.388;2022-07-10T13:03:25;22.20;93.40
19330;DHT22;9799;48.214;16.388;2022-07-10T13:06:49;22.50;92.50
19330;DHT22;9799;48.214;16.388;2022-07-10T13:10:11;21.90;93.70
19330;DHT22;9799;48.214;16.388;2022-07-10T13:13:33;21.80;92.50
19330;DHT22;9799;48.214;16.388;2022-07-10T13:16:54;21.80;96.00
19330;DHT22;9799;48.214;16.388;2022-07-10T13:20:15;21.90;93.80
19330;DHT22;9799;48.214;16.388;2022-07-10T13:23:37;21.80;93.70
19330;DHT22;9799;48.214;16.388;2022-07-10T13:26:59;22.00;92.60
19330;DHT22;9799;48.214;16.388;2022-07-10T13:30:22;22.00;93.00
19330;DHT22;9799;48.214;16.388;2022-07-10T13:33:43;22.10;91.90
19330;DHT22;9799;48.214;16.388;2022-07-10T13:37:04;22.10;93.00
19330;DHT22;9799;48.214;16.388;2022-07-10T13:40:25;21.90;92.70
19330;DHT22;9799;48.214;16.388;2022-07-10T13:43:47;22.20;91.70
19330;DHT22;9799;48.214;16.388;2022-07-10T13:47:09;22.10;90.90
19330;DHT22;9799;48.214;16.388;2022-07-10T13:50:31;22.10;90.80
19330;DHT22;9799;48.214;16.388;2022-07-10T13:53:52;22.00;91.30
19330;DHT22;9799;48.214;16.388;2022-07-10T13:57:13;22.00;92.80
19330;DHT22;9799;48.214;16.388;2022-07-10T14:00:34;22.10;91.40
19330;DHT22;9799;48.214;16.388;2022-07-10T14:03:57;22.20;92.20
19330;DHT22;9799;48.214;16.388;2022-07-10T14:07:18;21.90;91.30
19330;DHT22;9799;48.214;16.388;2022-07-10T14:10:39;21.90;91.60
19330;DHT22;9799;48.214;16.388;2022-07-10T14:14:01;21.70;91.30
19330;DHT22;9799;48.214;16.388;2022-07-10T14:17:22;21.90;91.30
19330;DHT22;9799;48.214;16.388;2022-07-10T14:20:45;22.10;90.90
19330;DHT22;9799;48.214;16.388;2022-07-10T14:24:24;22.30;90.50
19330;DHT22;9799;48.214;16.388;2022-07-10T14:27:45;22.00;86.90
19330;DHT22;9799;48.214;16.388;2022-07-10T14:31:07;22.00;90.00
19330;DHT22;9799;48.214;16.388;2022-07-10T14:34:28;22.20;86.20
19330;DHT22;9799;48.214;16.388;2022-07-10T14:37:51;22.20;86.30
19330;DHT22;9799;48.214;16.388;2022-07-10T14:41:12;22.20;84.80
19330;DHT22;9799;48.214;16.388;2022-07-10T14:44:33;22.00;85.40
19330;DHT22;9799;48.214;16.388;2022-07-10T14:47:54;22.00;85.60
19330;DHT22;9799;48.214;16.388;2022-07-10T14:51:15;22.10;83.30
19330;DHT22;9799;48.214;16.388;2022-07-10T14:54:38;21.70;84.00
19330;DHT22;9799;48.214;16.388;2022-07-10T14:58:00;21.80;86.70
19330;DHT22;9799;48.214;16.388;2022-07-10T15:01:21;21.80;85.20
19330;DHT22;9799;48.214;16.388;2022-07-10T15:04:42;21.90;87.10
19330;DHT22;9799;48.214;16.388;2022-07-10T15:08:03;22.10;85.90
19330;DHT22;9799;48.214;16.388;2022-07-10T15:11:27;21.90;86.70
19330;DHT22;9799;48.214;16.388;2022-07-10T15:14:48;22.00;85.40
19330;DHT22;9799;48.214;16.388;2022-07-10T15:18:09;22.10;84.70
19330;DHT22;9799;48.214;16.388;2022-07-10T15:21:31;22.00;82.10
19330;DHT22;9799;48.214;16.388;2022-07-10T15:24:52;21.80;81.40
19330;DHT22;9799;48.214;16.388;2022-07-10T15:28:14;21.90;81.90
19330;DHT22;9799;48.214;16.388;2022-07-10T15:31:35;21.90;81.40
19330;DHT22;9799;48.214;16.388;2022-07-10T15:34:57;21.90;84.10
19330;DHT22;9799;48.214;16.388;2022-07-10T15:38:19;21.70;83.80
19330;DHT22;9799;48.214;16.388;2022-07-10T15:41:40;21.40;82.60
19330;DHT22;9799;48.214;16.388;2022-07-10T15:45:07;21.50;84.90
19330;DHT22;9799;48.214;16.388;2022-07-10T15:48:28;21.40;84.90
19330;DHT22;9799;48.214;16.388;2022-07-10T15:51:50;21.10;84.20
19330;DHT22;9799;48.214;16.388;2022-07-10T15:55:11;21.20;84.30
19330;DHT22;9799;48.214;16.388;2022-07-10T15:58:32;21.30;83.90
19330;DHT22;9799;48.214;16.388;2022-07-10T16:01:56;21.50;85.50
19330;DHT22;9799;48.214;16.388;2022-07-10T16:05:17;21.30;88.40
19330;DHT22;9799;48.214;16.388;2022-07-10T16:08:38;21.20;85.50
19330;DHT22;9799;48.214;16.388;2022-07-10T16:11:59;21.10;85.00
19330;DHT22;9799;48.214;16.388;2022-07-10T16:15:20;21.20;85.60
19330;DHT22;9799;48.214;16.388;2022-07-10T16:18:43;21.10;87.50
19330;DHT22;9799;48.214;16.388;2022-07-10T16:22:04;20.90;86.00
19330;DHT22;9799;48.214;16.388;2022-07-10T16:25:26;21.00;85.90
19330;DHT22;9799;48.214;16.388;2022-07-10T16:29:05;21.20;86.20
19330;DHT22;9799;48.214;16.388;2022-07-10T16:32:26;21.40;86.10
19330;DHT22;9799;48.214;16.388;2022-07-10T16:35:48;21.30;84.80
19330;DHT22;9799;48.214;16.388;2022-07-10T16:39:10;21.30;85.90
19330;DHT22;9799;48.214;16.388;2022-07-10T16:42:31;21.60;87.90
19330;DHT22;9799;48.214;16.388;2022-07-10T16:45:52;21.60;86.40
19330;DHT22;9799;48.214;16.388;2022-07-10T16:49:13;21.80;86.20
19330;DHT22;9799;48.214;16.388;2022-07-10T16:52:36;21.80;83.50
19330;DHT22;9799;48.214;16.388;2022-07-10T16:56:00;21.40;84.60
19330;DHT22;9799;48.214;16.388;2022-07-10T16:59:21;21.00;87.70
19330;DHT22;9799;48.214;16.388;2022-07-10T17:02:43;20.80;89.50
19330;DHT22;9799;48.214;16.388;2022-07-10T17:06:04;20.70;90.00
19330;DHT22;9799;48.214;16.388;2022-07-10T17:09:27;20.70;86.80
19330;DHT22;9799;48.214;16.388;2022-07-10T17:12:49;20.60;89.60
19330;DHT22;9799;48.214;16.388;2022-07-10T17:16:11;20.50;87.70
19330;DHT22;9799;48.214;16.388;2022-07-10T17:19:33;20.40;88.40
19330;DHT22;9799;48.214;16.388;2022-07-10T17:22:54;20.20;89.10
19330;DHT22;9799;48.214;16.388;2022-07-10T17:26:17;20.10;89.80
19330;DHT22;9799;48.214;16.388;2022-07-10T17:29:38;20.10;89.80
19330;DHT22;9799;48.214;16.388;2022-07-10T17:32:59;20.00;90.20
19330;DHT22;9799;48.214;16.388;2022-07-10T17:36:20;19.80;91.90
19330;DHT22;9799;48.214;16.388;2022-07-10T17:39:42;19.90;90.20
19330;DHT22;9799;48.214;16.388;2022-07-10T17:43:05;19.90;91.00
19330;DHT22;9799;48.214;16.388;2022-07-10T17:46:26;19.80;89.10
19330;DHT22;9799;48.214;16.388;2022-07-10T17:49:47;19.80;90.80
19330;DHT22;9799;48.214;16.388;2022-07-10T17:53:09;19.90;88.90
19330;DHT22;9799;48.214;16.388;2022-07-10T17:56:30;19.80;90.10
19330;DHT22;9799;48.214;16.388;2022-07-10T17:59:53;19.80;91.20
19330;DHT22;9799;48.214;16.388;2022-07-10T18:03:14;19.80;88.70
19330;DHT22;9799;48.214;16.388;2022-07-10T18:06:35;19.80;88.40
19330;DHT22;9799;48.214;16.388;2022-07-10T18:09:56;19.70;88.40
19330;DHT22;9799;48.214;16.388;2022-07-10T18:13:18;19.70;90.10
19330;DHT22;9799;48.214;16.388;2022-07-10T18:16:40;19.60;88.90
19330;DHT22;9799;48.214;16.388;2022-07-10T18:20:02;19.60;90.40
19330;DHT22;9799;48.214;16.388;2022-07-10T18:23:23;19.40;91.10
19330;DHT22;9799;48.214;16.388;2022-07-10T18:26:46;19.30;90.60
19330;DHT22;9799;48.214;16.388;2022-07-10T18:30:08;19.20;91.30
19330;DHT22;9799;48.214;16.388;2022-07-10T18:33:31;19.20;94.80
19330;DHT22;9799;48.214;16.388;2022-07-10T18:37:10;19.20;93.00
19330;DHT22;9799;48.214;16.388;2022-07-10T18:40:32;19.20;93.70
19330;DHT22;9799;48.214;16.388;2022-07-10T18:43:53;19.20;93.00
19330;DHT22;9799;48.214;16.388;2022-07-10T18:47:15;19.20;92.20
19330;DHT22;9799;48.214;16.388;2022-07-10T18:50:37;19.10;92.30
19330;DHT22;9799;48.214;16.388;2022-07-10T18:53:58;19.10;92.80
19330;DHT22;9799;48.214;16.388;2022-07-10T18:57:19;19.10;92.80
19330;DHT22;9799;48.214;16.388;2022-07-10T19:00:41;19.10;93.10
19330;DHT22;9799;48.214;16.388;2022-07-10T19:04:02;19.00;93.10
19330;DHT22;9799;48.214;16.388;2022-07-10T19:07:25;19.00;93.50
19330;DHT22;9799;48.214;16.388;2022-07-10T19:10:46;19.00;93.70
19330;DHT22;9799;48.214;16.388;2022-07-10T19:14:08;19.10;93.70
19330;DHT22;9799;48.214;16.388;2022-07-10T19:17:29;19.10;93.10
19330;DHT22;9799;48.214;16.388;2022-07-10T19:20:51;19.00;93.10
19330;DHT22;9799;48.214;16.388;2022-07-10T19:24:14;19.00;92.80
19330;DHT22;9799;48.214;16.388;2022-07-10T19:27:35;19.10;94.20
19330;DHT22;9799;48.214;16.388;2022-07-10T19:30:56;19.20;95.50
19330;DHT22;9799;48.214;16.388;2022-07-10T19:34:18;19.10;92.80
19330;DHT22;9799;48.214;16.388;2022-07-10T19:37:39;19.10;92.50
19330;DHT22;9799;48.214;16.388;2022-07-10T19:41:01;19.00;93.20
19330;DHT22;9799;48.214;16.388;2022-07-10T19:44:27;18.90;93.10
19330;DHT22;9799;48.214;16.388;2022-07-10T19:47:48;18.80;93.50
19330;DHT22;9799;48.214;16.388;2022-07-10T19:51:11;18.80;94.30
19330;DHT22;9799;48.214;16.388;2022-07-10T19:54:33;18.70;93.80
19330;DHT22;9799;48.214;16.388;2022-07-10T19:57:55;18.70;94.10
19330;DHT22;9799;48.214;16.388;2022-07-10T20:01:17;18.70;93.90
19330;DHT22;9799;48.214;16.388;2022-07-10T20:04:38;18.60;94.60
19330;DHT22;9799;48.214;16.388;2022-07-10T20:08:00;18.60;94.80
19330;DHT22;9799;48.214;16.388;2022-07-10T20:11:21;18.70;94.20
19330;DHT22;9799;48.214;16.388;2022-07-10T20:14:43;18.70;94.50
19330;DHT22;9799;48.214;16.388;2022-07-10T20:18:05;18.70;94.20
19330;DHT22;9799;48.214;16.388;2022-07-10T20:21:26;18.70;94.90
19330;DHT22;9799;48.214;16.388;2022-07-10T20:24:47;18.70;94.80
19330;DHT22;9799;48.214;16.388;2022-07-10T20:28:08;18.70;94.40
19330;DHT22;9799;48.214;16.388;2022-07-10T20:31:31;18.60;94.40
19330;DHT22;9799;48.214;16.388;2022-07-10T20:34:52;18.40;94.60
19330;DHT22;9799;48.214;16.388;2022-07-10T20:38:13;18.40;96.60
19330;DHT22;9799;48.214;16.388;2022-07-10T20:41:34;18.40;95.60
19330;DHT22;9799;48.214;16.388;2022-07-10T20:44:56;18.40;95.20
19330;DHT22;9799;48.214;16.388;2022-07-10T20:48:18;18.40;96.60
19330;DHT22;9799;48.214;16.388;2022-07-10T20:51:39;18.40;95.20
19330;DHT22;9799;48.214;16.388;2022-07-10T20:55:01;18.40;95.30
19330;DHT22;9799;48.214;16.388;2022-07-10T20:58:22;18.40;95.40
19330;DHT22;9799;48.214;16.388;2022-07-10T21:01:43;18.40;95.40
19330;DHT22;9799;48.214;16.388;2022-07-10T21:05:07;18.40;95.60
19330;DHT22;9799;48.214;16.388;2022-07-10T21:08:29;18.40;96.40
19330;DHT22;9799;48.214;16.388;2022-07-10T21:11:50;18.40;96.50
19330;DHT22;9799;48.214;16.388;2022-07-10T21:15:11;18.40;96.00
19330;DHT22;9799;48.214;16.388;2022-07-10T21:18:32;18.50;96.20